»·PEaware :: N104HP KLAX-KPHX

N104HP :: KLAX-KPHX

FLIGHT INFORMATION

Flight Status: Arrived
Operator: Privately registered:
United States
More flights under this callsign
Pilot: Hassan P. (16390)
Aircraft: BOMBARDIER BD-100 CHALLENGER 300
(CL30)
More flights by this aircraft type
Origin: KLAX Los Angeles Intl
United States
Destination: KPHX Phoenix Sky Harbor Intl
United States
More flights between these airports :: More routes between these airports
Route: +DOTSS2 CNERY BLH HYDRR1
File this flight plan on PilotEdge
Remarks:
Altitude:
(Current/Filed)
270ft
Speed:
(Current/Filed)
290kts
Departed: 23-Apr-18 09:09 AM
Arrived: 23-Apr-18 10:10 AM
Distance/Time
Traveled:
321nm/1:00
Distance/Time
To Go:
Arrived

Flight Plot

Page will automatically refresh every two minutes.

Flight plan parsing failed; only flown route is shown


Map Options




Map Legend


Flown Route
Filed Route
Departure Airport
Arrival Airport
Navaid (VOR, NDB)
Fix

Horizontal Profiles

Position Reports

Time Latitude Longitude Heading Altitude Ground
Speed
23-Apr-18 08:38 33.933522 -118.396893 287 109ft 0kts
23-Apr-18 08:39 33.933522 -118.396893 287 109ft 0kts
23-Apr-18 08:40 33.933522 -118.396893 287 109ft 0kts
23-Apr-18 08:41 33.933522 -118.396893 287 109ft 0kts
23-Apr-18 08:42 33.933522 -118.396893 287 109ft 0kts
23-Apr-18 08:43 33.933522 -118.396893 287 109ft 0kts
23-Apr-18 08:44 33.933522 -118.396893 287 109ft 0kts
23-Apr-18 08:45 33.933522 -118.396893 287 109ft 0kts
23-Apr-18 08:46 33.933522 -118.396893 287 109ft 0kts
23-Apr-18 08:47 33.933522 -118.396893 287 109ft 0kts
23-Apr-18 08:48 33.933522 -118.396893 287 109ft 0kts
23-Apr-18 08:49 33.934091 -118.398110 341 109ft 5kts
23-Apr-18 08:50 33.934716 -118.396516 83 109ft 6kts
23-Apr-18 08:51 33.934629 -118.393831 160 109ft 0kts
23-Apr-18 08:56 33.933799 -118.388996 173 109ft 0kts
23-Apr-18 08:57 33.933799 -118.388996 173 109ft 0kts
23-Apr-18 08:58 33.933726 -118.389294 316 109ft 3kts
23-Apr-18 08:59 33.934909 -118.389707 2 109ft 9kts
23-Apr-18 09:00 33.935771 -118.386209 83 109ft 8kts
23-Apr-18 09:01 33.936041 -118.383561 82 109ft 4kts
23-Apr-18 09:02 33.936046 -118.383516 82 109ft 0kts
23-Apr-18 09:03 33.936046 -118.383516 82 109ft 0kts
23-Apr-18 09:04 33.936046 -118.383516 82 109ft 0kts
23-Apr-18 09:05 33.936046 -118.383516 82 109ft 0kts
23-Apr-18 09:06 33.936066 -118.383318 82 109ft 3kts
23-Apr-18 09:07 33.937340 -118.383239 257 109ft 5kts
23-Apr-18 09:08 33.928878 -118.412896 217 1183ft 206kts
23-Apr-18 09:09 33.873447 -118.413405 178 4149ft 211kts
23-Apr-18 09:10 33.806156 -118.416506 184 5008ft 277kts
23-Apr-18 09:11 33.742199 -118.424941 187 5369ft 171kts
23-Apr-18 09:12 33.699644 -118.431935 189 7598ft 172kts
23-Apr-18 09:13 33.671446 -118.392859 92 10043ft 222kts
23-Apr-18 09:14 33.667161 -118.299738 92 12471ft 299kts
23-Apr-18 09:15 33.663265 -118.203167 92 14732ft 291kts
23-Apr-18 09:16 33.659023 -118.096724 92 16523ft 336kts
23-Apr-18 09:17 33.654777 -117.988774 92 18515ft 350kts
23-Apr-18 09:18 33.650210 -117.871449 92 20608ft 357kts
23-Apr-18 09:19 33.645626 -117.752153 91 22703ft 360kts
23-Apr-18 09:20 33.641089 -117.632783 91 24797ft 358kts
23-Apr-18 09:21 33.636710 -117.515454 91 26878ft 351kts
23-Apr-18 09:22 33.635478 -117.401614 88 27104ft 396kts
23-Apr-18 09:23 33.635650 -117.263347 89 27096ft 438kts
23-Apr-18 09:24 33.635106 -117.113608 89 27091ft 456kts
23-Apr-18 09:25 33.634300 -116.960587 91 27045ft 462kts
23-Apr-18 09:26 33.633187 -116.805617 92 27009ft 466kts
23-Apr-18 09:27 33.631868 -116.650335 91 27009ft 468kts
23-Apr-18 09:28 33.630365 -116.494093 92 26998ft 468kts
23-Apr-18 09:29 33.628686 -116.338957 92 26976ft 469kts
23-Apr-18 09:30 33.626803 -116.183055 92 26975ft 469kts
23-Apr-18 09:31 33.624716 -116.026838 92 26970ft 470kts
23-Apr-18 09:32 33.622518 -115.876308 92 26977ft 470kts
23-Apr-18 09:33 33.620048 -115.720066 92 26974ft 470kts
23-Apr-18 09:34 33.617220 -115.563305 93 26972ft 470kts
23-Apr-18 09:35 33.613518 -115.406394 93 26976ft 471kts
23-Apr-18 09:36 33.609647 -115.251588 93 26996ft 470kts
23-Apr-18 09:37 33.605545 -115.096201 93 27008ft 470kts
23-Apr-18 09:38 33.601201 -114.939351 93 27009ft 473kts
23-Apr-18 09:39 33.596589 -114.782930 95 27004ft 463kts
23-Apr-18 09:40 33.570894 -114.634218 104 27012ft 454kts
23-Apr-18 09:41 33.542383 -114.485706 105 26301ft 454kts
23-Apr-18 09:42 33.514776 -114.344580 105 24805ft 432kts
23-Apr-18 09:43 33.487530 -114.206584 106 23022ft 421kts
23-Apr-18 09:44 33.461822 -114.077187 106 23003ft 381kts
23-Apr-18 09:45 33.436896 -113.953070 106 23012ft 394kts
23-Apr-18 09:46 33.410570 -113.822035 106 22802ft 414kts
23-Apr-18 09:47 33.384003 -113.690315 106 22012ft 380kts
23-Apr-18 09:48 33.360478 -113.574470 106 21358ft 350kts
23-Apr-18 09:49 33.337810 -113.462697 104 20164ft 341kts
23-Apr-18 09:50 33.317858 -113.348103 104 18380ft 366kts
23-Apr-18 09:51 33.297785 -113.231519 102 15735ft 347kts
23-Apr-18 09:52 33.282681 -113.127060 102 15005ft 283kts
23-Apr-18 09:53 33.276181 -113.032932 90 13332ft 296kts
23-Apr-18 09:54 33.278077 -112.932888 89 11747ft 305kts
23-Apr-18 09:55 33.280484 -112.835009 83 10832ft 287kts
23-Apr-18 09:56 33.308750 -112.749802 67 10022ft 267kts
23-Apr-18 09:57 33.339741 -112.665373 66 10020ft 285kts
23-Apr-18 09:58 33.372467 -112.578759 66 8707ft 282kts
23-Apr-18 09:59 33.401980 -112.500553 67 7060ft 242kts
23-Apr-18 10:00 33.423868 -112.438526 67 6542ft 176kts
23-Apr-18 10:01 33.428217 -112.384092 88 6452ft 186kts
23-Apr-18 10:02 33.429474 -112.319502 90 5895ft 179kts
23-Apr-18 10:03 33.428973 -112.266093 89 5018ft 151kts
23-Apr-18 10:04 33.428810 -112.211557 89 4337ft 169kts
23-Apr-18 10:05 33.428503 -112.154876 91 3193ft 185kts
23-Apr-18 10:06 33.429065 -112.097475 88 2315ft 156kts
23-Apr-18 10:07 33.428903 -112.051940 90 1590ft 132kts
23-Apr-18 10:08 33.428852 -112.013788 90 1119ft 51kts
23-Apr-18 10:09 33.427967 -112.010368 140 1119ft 0kts
23-Apr-18 10:10 33.427735 -112.010087 128 1119ft 8kts

Navigation Log

Ident Type
Flight plan parsing failed, navigation log unavailable